createdAt,value
2022-11-25T00:00:33.639Z,43.83
2022-11-25T00:01:20.933Z,52.03
2022-11-25T00:02:02.656Z,52.92
2022-11-25T00:02:44.795Z,29.13
2022-11-25T00:03:26.564Z,18.08
2022-11-25T00:04:08.428Z,11.48
2022-11-25T00:04:50.129Z,10.73
2022-11-25T00:05:31.773Z,8.20
2022-11-25T00:06:13.463Z,8.70
2022-11-25T00:06:55.197Z,7.45
2022-11-25T00:07:37.133Z,8.10
2022-11-25T00:08:18.824Z,5.45
2022-11-25T00:09:09.965Z,8.73
2022-11-25T00:09:51.600Z,6.85
2022-11-25T00:10:33.488Z,8.90
2022-11-25T00:11:16.401Z,6.55
2022-11-25T00:11:57.994Z,6.28
2022-11-25T00:12:39.669Z,5.40
2022-11-25T00:13:21.316Z,6.13
2022-11-25T00:14:03.524Z,7.65
2022-11-25T00:14:45.161Z,8.90
2022-11-25T00:15:26.860Z,8.50
2022-11-25T00:16:11.717Z,21.42
2022-11-25T00:16:53.460Z,24.77
2022-11-25T00:17:35.148Z,37.05
2022-11-25T00:18:16.807Z,31.80
2022-11-25T00:18:58.984Z,41.78
2022-11-25T00:19:40.640Z,37.83
2022-11-25T00:20:22.525Z,32.60
2022-11-25T00:21:09.364Z,28.50
2022-11-25T00:21:50.999Z,14.30
2022-11-25T00:22:32.646Z,13.50
2022-11-25T00:23:14.291Z,11.63
2022-11-25T00:24:00.944Z,11.63
2022-11-25T00:24:42.800Z,16.98
2022-11-25T00:25:24.469Z,17.55
2022-11-25T00:26:11.949Z,14.52
2022-11-25T00:26:53.638Z,15.93
2022-11-25T00:27:35.299Z,15.00
2022-11-25T00:28:20.057Z,14.93
2022-11-25T00:29:07.207Z,18.52
2022-11-25T00:29:50.735Z,13.40
2022-11-25T00:30:32.971Z,14.35
2022-11-25T00:31:26.335Z,12.05
2022-11-25T00:32:08.084Z,13.73
2022-11-25T00:32:49.809Z,14.30
2022-11-25T00:33:31.474Z,18.20
2022-11-25T00:34:14.370Z,13.93
2022-11-25T00:34:56.061Z,14.73
2022-11-25T00:35:37.689Z,13.48
2022-11-25T00:36:23.784Z,17.67
2022-11-25T00:37:05.560Z,16.45
2022-11-25T00:37:47.256Z,12.48
2022-11-25T00:38:29.626Z,13.77
2022-11-25T00:39:16.656Z,13.65
2022-11-25T00:39:58.258Z,13.15
2022-11-25T00:40:39.987Z,13.43
2022-11-25T00:41:40.498Z,15.43
2022-11-25T00:42:57.510Z,15.20
2022-11-25T00:43:58.064Z,14.57
2022-11-25T00:44:40.941Z,13.60
2022-11-25T00:45:23.873Z,11.20
2022-11-25T00:46:05.622Z,14.30
2022-11-25T00:46:47.315Z,12.68
2022-11-25T00:47:29.501Z,14.82
2022-11-25T00:48:11.404Z,13.55
2022-11-25T00:48:53.103Z,16.55
2022-11-25T00:49:35.170Z,13.80
2022-11-25T00:50:16.857Z,16.23
2022-11-25T00:50:58.496Z,16.40
2022-11-25T00:51:40.249Z,17.17
2022-11-25T00:52:24.864Z,15.55
2022-11-25T00:53:06.548Z,15.30
2022-11-25T00:53:48.250Z,13.20
2022-11-25T00:54:30.255Z,12.18
2022-11-25T00:55:11.894Z,14.77
2022-11-25T00:56:12.097Z,28.10
2022-11-25T00:56:53.977Z,24.90
2022-11-25T00:57:35.638Z,17.42
2022-11-25T00:58:17.275Z,15.07
2022-11-25T00:58:58.907Z,13.55
2022-11-25T00:59:40.593Z,14.65
2022-11-25T01:00:22.402Z,13.63
2022-11-25T01:01:04.279Z,13.57
2022-11-25T01:01:46.574Z,14.63
2022-11-25T01:02:28.370Z,14.25
2022-11-25T01:03:11.157Z,13.30
2022-11-25T01:03:53.653Z,11.52
2022-11-25T01:04:35.747Z,9.70
2022-11-25T01:05:17.621Z,12.77
2022-11-25T01:06:03.860Z,8.40
2022-11-25T01:06:45.657Z,7.43
2022-11-25T01:07:29.992Z,11.18
2022-11-25T01:08:11.756Z,12.15
2022-11-25T01:08:53.921Z,10.52
2022-11-25T01:09:35.987Z,10.52
2022-11-25T01:10:18.580Z,10.35
2022-11-25T01:11:06.451Z,8.57
2022-11-25T01:11:50.933Z,6.47
2022-11-25T01:12:32.573Z,7.80
2022-11-25T01:13:14.250Z,11.55
2022-11-25T01:14:00.783Z,7.22
2022-11-25T01:14:42.696Z,6.78
2022-11-25T01:15:25.386Z,6.77
2022-11-25T01:16:08.658Z,8.32
2022-11-25T01:16:50.845Z,6.10
2022-11-25T01:17:32.543Z,5.95
2022-11-25T01:18:14.196Z,7.28
2022-11-25T01:18:56.015Z,6.85
2022-11-25T01:19:41.842Z,8.25
2022-11-25T01:20:23.511Z,7.70
2022-11-25T01:21:11.132Z,7.35
2022-11-25T01:21:52.790Z,7.57
2022-11-25T01:22:34.516Z,5.70
2022-11-25T01:23:17.727Z,4.95
2022-11-25T01:24:01.493Z,6.68
2022-11-25T01:24:43.107Z,6.07
2022-11-25T01:25:24.756Z,6.07
2022-11-25T01:26:33.560Z,7.15
2022-11-25T01:27:15.216Z,6.47
2022-11-25T01:27:57.085Z,7.35
2022-11-25T01:28:39.170Z,6.18
2022-11-25T01:29:20.923Z,6.60
2022-11-25T01:30:02.604Z,6.97
2022-11-25T01:30:44.271Z,5.85
2022-11-25T01:31:34.463Z,4.70
2022-11-25T01:32:16.293Z,5.07
2022-11-25T01:32:58.089Z,5.47
2022-11-25T01:33:42.184Z,8.00
2022-11-25T01:34:26.203Z,5.22
2022-11-25T01:35:08.458Z,5.38
2022-11-25T01:35:50.080Z,6.03
2022-11-25T01:36:31.808Z,4.57
2022-11-25T01:37:13.503Z,5.97
2022-11-25T01:37:55.269Z,4.15
2022-11-25T01:38:40.054Z,6.13
2022-11-25T01:39:28.664Z,7.15
2022-11-25T01:40:13.728Z,5.15
2022-11-25T01:40:55.534Z,6.63
2022-11-25T01:41:37.228Z,4.47
2022-11-25T01:42:19.916Z,4.45
2022-11-25T01:43:01.691Z,5.07
2022-11-25T01:43:43.393Z,5.82
2022-11-25T01:44:30.376Z,3.90
2022-11-25T01:45:27.994Z,6.15
2022-11-25T01:46:19.392Z,6.00
2022-11-25T01:47:03.967Z,5.03
2022-11-25T01:47:45.614Z,4.45
2022-11-25T01:48:50.027Z,6.13
2022-11-25T01:49:39.731Z,5.32
2022-11-25T01:50:23.875Z,5.60
2022-11-25T01:51:06.376Z,6.55
2022-11-25T01:51:57.674Z,6.20
2022-11-25T01:52:45.930Z,5.00
2022-11-25T01:53:27.719Z,6.70
2022-11-25T01:54:16.114Z,7.40
2022-11-25T01:55:03.288Z,6.20
2022-11-25T01:55:51.352Z,6.45
2022-11-25T01:56:37.975Z,5.47
2022-11-25T01:57:28.139Z,7.60
2022-11-25T01:58:17.466Z,6.13
2022-11-25T01:58:59.576Z,7.55
2022-11-25T01:59:45.992Z,6.65
2022-11-25T02:00:27.781Z,7.90
2022-11-25T02:01:09.885Z,7.50
2022-11-25T02:01:52.760Z,7.07
2022-11-25T02:02:36.296Z,5.97
2022-11-25T02:03:29.168Z,5.90
2022-11-25T02:04:14.611Z,6.30
2022-11-25T02:04:59.134Z,6.07
2022-11-25T02:05:52.660Z,6.18
2022-11-25T02:06:45.111Z,7.82
2022-11-25T02:07:29.922Z,6.45
2022-11-25T02:08:12.953Z,8.00
2022-11-25T02:09:04.567Z,5.78
2022-11-25T02:09:47.239Z,7.43
2022-11-25T02:10:32.170Z,5.68
2022-11-25T02:11:14.792Z,6.68
2022-11-25T02:11:56.935Z,7.13
2022-11-25T02:12:41.266Z,7.28
2022-11-25T02:13:23.832Z,7.68
2022-11-25T02:14:06.927Z,7.47
2022-11-25T02:14:51.042Z,7.07
2022-11-25T02:15:35.226Z,5.68
2022-11-25T02:16:19.181Z,4.35
2022-11-25T02:17:02.548Z,6.80
2022-11-25T02:17:44.955Z,6.60
2022-11-25T02:18:27.396Z,5.95
2022-11-25T02:19:20.853Z,6.80
2022-11-25T02:20:12.255Z,5.88
2022-11-25T02:20:54.726Z,7.18
2022-11-25T02:21:47.526Z,5.85
2022-11-25T02:22:56.978Z,6.43
2022-11-25T02:23:47.419Z,5.30
2022-11-25T02:24:51.502Z,6.35
2022-11-25T02:25:38.386Z,5.93
2022-11-25T02:26:24.008Z,5.60
2022-11-25T02:27:05.846Z,5.95
2022-11-25T02:27:52.492Z,5.30
2022-11-25T02:28:34.946Z,5.75
2022-11-25T02:29:18.611Z,7.57
2022-11-25T02:30:00.281Z,6.10
2022-11-25T02:30:42.797Z,6.55
2022-11-25T02:31:24.923Z,6.80
2022-11-25T02:32:06.787Z,4.95
2022-11-25T02:32:48.961Z,5.35
2022-11-25T02:33:30.673Z,5.03
2022-11-25T02:34:12.320Z,7.80
2022-11-25T02:34:53.978Z,7.22
2022-11-25T02:35:37.309Z,7.60
2022-11-25T02:36:22.561Z,7.15
2022-11-25T02:37:04.371Z,7.45
2022-11-25T02:37:47.097Z,6.22
2022-11-25T02:38:41.387Z,7.50
2022-11-25T02:39:24.667Z,6.63
2022-11-25T02:40:06.941Z,7.07
2022-11-25T02:40:59.848Z,7.45
2022-11-25T02:41:47.939Z,6.53
2022-11-25T02:42:29.983Z,6.03
2022-11-25T02:43:13.252Z,7.63
2022-11-25T02:43:55.051Z,6.88
2022-11-25T02:44:37.316Z,5.88
2022-11-25T02:45:26.798Z,4.47
2022-11-25T02:46:21.856Z,6.60
2022-11-25T02:47:04.458Z,5.25
2022-11-25T02:47:46.230Z,5.22
2022-11-25T02:49:00.985Z,4.70
2022-11-25T02:49:33.342Z,4.95
2022-11-25T02:50:15.256Z,6.03
2022-11-25T02:50:57.665Z,4.90
2022-11-25T02:51:43.899Z,6.53
2022-11-25T02:52:25.770Z,5.47
2022-11-25T02:53:08.140Z,5.70
2022-11-25T02:53:52.040Z,5.28
2022-11-25T02:54:35.228Z,6.20
2022-11-25T02:55:17.234Z,6.15
2022-11-25T02:55:59.275Z,7.05
2022-11-25T02:56:41.647Z,6.70
2022-11-25T02:57:23.789Z,7.63
2022-11-25T02:58:05.441Z,4.95
2022-11-25T02:58:47.136Z,4.88
2022-11-25T02:59:28.788Z,6.85
2022-11-25T03:00:11.209Z,6.57
2022-11-25T03:00:55.485Z,6.30
2022-11-25T03:01:38.462Z,5.75
2022-11-25T03:02:22.054Z,6.38
2022-11-25T03:03:03.995Z,5.85
2022-11-25T03:03:45.712Z,7.18
2022-11-25T03:04:27.621Z,5.78
2022-11-25T03:05:09.563Z,5.32
2022-11-25T03:05:53.621Z,5.93
2022-11-25T03:06:35.431Z,6.38
2022-11-25T03:07:17.107Z,6.53
2022-11-25T03:07:59.716Z,5.95
2022-11-25T03:08:41.599Z,5.70
2022-11-25T03:09:26.469Z,4.80
2022-11-25T03:10:09.383Z,4.63
2022-11-25T03:10:51.170Z,4.75
2022-11-25T03:11:51.467Z,5.35
2022-11-25T03:12:35.017Z,4.97
2022-11-25T03:13:16.834Z,4.70
2022-11-25T03:13:58.508Z,5.47
2022-11-25T03:14:40.323Z,4.90
2022-11-25T03:15:25.590Z,5.60
2022-11-25T03:16:08.037Z,7.03
2022-11-25T03:16:50.239Z,6.05
2022-11-25T03:17:31.933Z,7.82
2022-11-25T03:18:13.739Z,5.78
2022-11-25T03:18:56.702Z,4.78
2022-11-25T03:19:38.551Z,6.15
2022-11-25T03:20:20.702Z,5.20
2022-11-25T03:21:02.814Z,6.18
2022-11-25T03:21:44.459Z,5.15
2022-11-25T03:22:26.378Z,5.32
2022-11-25T03:23:08.379Z,6.05
2022-11-25T03:23:49.981Z,5.03
2022-11-25T03:24:33.202Z,6.65
2022-11-25T03:25:16.510Z,4.38
2022-11-25T03:25:58.539Z,7.05
2022-11-25T03:26:40.546Z,7.10
2022-11-25T03:27:23.085Z,6.00
2022-11-25T03:28:04.901Z,6.18
2022-11-25T03:28:47.370Z,5.15
2022-11-25T03:29:29.127Z,6.43
2022-11-25T03:30:22.861Z,5.32
2022-11-25T03:31:11.122Z,6.70
2022-11-25T03:31:53.020Z,6.75
2022-11-25T03:32:35.639Z,6.70
2022-11-25T03:33:17.347Z,5.68
2022-11-25T03:34:00.415Z,6.60
2022-11-25T03:34:42.156Z,5.50
2022-11-25T03:35:24.377Z,6.82
2022-11-25T03:36:06.388Z,7.63
2022-11-25T03:36:48.303Z,8.82
2022-11-25T03:37:30.016Z,5.78
2022-11-25T03:38:11.650Z,6.00
2022-11-25T03:38:53.310Z,6.88
2022-11-25T03:39:35.072Z,5.55
2022-11-25T03:40:17.242Z,7.90
2022-11-25T03:40:59.703Z,6.88
2022-11-25T03:41:41.488Z,6.72
2022-11-25T03:42:23.142Z,5.18
2022-11-25T03:43:05.298Z,6.35
2022-11-25T03:43:48.867Z,5.82
2022-11-25T03:44:30.631Z,5.95
2022-11-25T03:45:14.398Z,5.53
2022-11-25T03:45:56.204Z,5.85
2022-11-25T03:46:37.976Z,6.05
2022-11-25T03:47:21.730Z,6.40
2022-11-25T03:48:03.655Z,7.78
2022-11-25T03:48:45.403Z,8.25
2022-11-25T03:49:27.832Z,6.05
2022-11-25T03:50:10.720Z,5.53
2022-11-25T03:50:52.332Z,6.20
2022-11-25T03:51:34.771Z,5.65
2022-11-25T03:52:17.142Z,4.93
2022-11-25T03:52:59.784Z,4.93
2022-11-25T03:53:41.798Z,5.53
2022-11-25T03:54:24.743Z,5.40
2022-11-25T03:55:29.404Z,5.28
2022-11-25T03:56:11.077Z,5.78
2022-11-25T03:56:52.909Z,5.95
2022-11-25T03:57:35.291Z,6.28
2022-11-25T03:58:17.241Z,5.80
2022-11-25T03:58:58.912Z,7.03
2022-11-25T03:59:40.682Z,6.07
2022-11-25T04:00:22.685Z,6.72
2022-11-25T04:01:14.323Z,8.25
2022-11-25T04:01:58.389Z,7.38
2022-11-25T04:02:40.162Z,5.82
2022-11-25T04:03:21.824Z,7.80
2022-11-25T04:04:04.286Z,7.55
2022-11-25T04:04:46.124Z,7.63
2022-11-25T04:05:27.865Z,5.38
2022-11-25T04:06:13.016Z,6.78
2022-11-25T04:06:55.020Z,6.07
2022-11-25T04:07:37.342Z,6.18
2022-11-25T04:08:21.505Z,6.30
2022-11-25T04:09:03.512Z,5.47
2022-11-25T04:09:46.043Z,6.45
2022-11-25T04:10:31.331Z,6.38
2022-11-25T04:11:13.476Z,7.13
2022-11-25T04:12:17.658Z,5.43
2022-11-25T04:13:09.691Z,5.88
2022-11-25T04:13:55.138Z,5.45
2022-11-25T04:14:37.566Z,6.32
2022-11-25T04:15:19.365Z,6.30
2022-11-25T04:16:05.748Z,7.00
2022-11-25T04:16:47.636Z,5.05
2022-11-25T04:17:29.541Z,6.10
2022-11-25T04:18:11.811Z,5.38
2022-11-25T04:18:53.874Z,6.93
2022-11-25T04:19:35.674Z,5.80
2022-11-25T04:20:18.090Z,5.90
2022-11-25T04:21:05.708Z,5.70
2022-11-25T04:21:52.177Z,5.68
2022-11-25T04:22:34.497Z,6.53
2022-11-25T04:23:18.517Z,6.25
2022-11-25T04:24:09.576Z,6.63
2022-11-25T04:24:51.336Z,9.18
2022-11-25T04:25:39.176Z,7.30
2022-11-25T04:26:26.861Z,5.90
2022-11-25T04:27:08.681Z,5.40
2022-11-25T04:27:50.572Z,6.63
2022-11-25T04:28:37.713Z,7.78
2022-11-25T04:29:19.676Z,6.50
2022-11-25T04:30:02.901Z,6.68
2022-11-25T04:30:45.393Z,7.00
2022-11-25T04:31:27.801Z,8.35
2022-11-25T04:32:09.544Z,9.70
2022-11-25T04:32:51.709Z,5.40
2022-11-25T04:33:33.516Z,6.50
2022-11-25T04:34:15.416Z,7.70
2022-11-25T04:34:58.986Z,6.45
2022-11-25T04:35:40.851Z,5.78
2022-11-25T04:36:23.783Z,6.10
2022-11-25T04:37:05.619Z,5.53
2022-11-25T04:37:47.407Z,5.20
2022-11-25T04:38:29.184Z,6.63
2022-11-25T04:39:13.387Z,8.27
2022-11-25T04:39:55.652Z,5.63
2022-11-25T04:40:37.815Z,7.15
2022-11-25T04:41:31.332Z,5.97
2022-11-25T04:42:32.202Z,5.45
2022-11-25T04:43:15.594Z,7.13
2022-11-25T04:44:03.616Z,5.28
2022-11-25T04:45:00.978Z,7.28
2022-11-25T04:46:12.403Z,6.82
2022-11-25T04:46:46.194Z,8.15
2022-11-25T04:47:29.952Z,7.10
2022-11-25T04:48:11.916Z,7.80
2022-11-25T04:48:53.573Z,6.32
2022-11-25T04:49:36.351Z,7.15
2022-11-25T04:50:22.076Z,7.20
2022-11-25T04:51:13.694Z,5.93
2022-11-25T04:51:55.355Z,6.38
2022-11-25T04:52:37.090Z,9.50
2022-11-25T04:53:18.843Z,6.85
2022-11-25T04:54:00.569Z,8.07
2022-11-25T04:54:42.490Z,7.18
2022-11-25T04:55:24.201Z,6.60
2022-11-25T04:56:06.207Z,6.97
2022-11-25T04:56:57.374Z,7.25
2022-11-25T04:57:39.389Z,7.50
2022-11-25T04:58:41.080Z,8.93
2022-11-25T04:59:41.684Z,5.57
2022-11-25T05:00:25.511Z,6.15
2022-11-25T05:01:08.559Z,7.82
2022-11-25T05:01:51.252Z,6.63
2022-11-25T05:02:46.733Z,7.60
2022-11-25T05:03:33.595Z,7.15
2022-11-25T05:04:16.027Z,6.53
2022-11-25T05:04:58.768Z,8.13
2022-11-25T05:05:40.511Z,6.53
2022-11-25T05:06:22.692Z,8.13
2022-11-25T05:07:04.575Z,7.35
2022-11-25T05:07:46.369Z,10.32
2022-11-25T05:08:29.167Z,6.57
2022-11-25T05:09:11.295Z,8.32
2022-11-25T05:09:55.400Z,6.78
2022-11-25T05:11:00.277Z,6.63
2022-11-25T05:11:42.460Z,8.43
2022-11-25T05:12:27.039Z,8.73
2022-11-25T05:13:08.740Z,7.07
2022-11-25T05:13:50.337Z,7.80
2022-11-25T05:14:32.606Z,6.18
2022-11-25T05:15:14.483Z,8.98
2022-11-25T05:16:00.224Z,8.27
2022-11-25T05:16:42.136Z,8.02
2022-11-25T05:17:27.353Z,7.72
2022-11-25T05:18:09.897Z,7.80
2022-11-25T05:19:00.361Z,8.93
2022-11-25T05:19:42.045Z,9.38
2022-11-25T05:20:24.350Z,8.95
2022-11-25T05:21:07.447Z,6.35
2022-11-25T05:21:52.755Z,6.05
2022-11-25T05:22:35.344Z,7.75
2022-11-25T05:23:18.511Z,7.03
2022-11-25T05:24:00.150Z,9.75
2022-11-25T05:24:44.801Z,9.13
2022-11-25T05:25:28.206Z,7.78
2022-11-25T05:26:22.136Z,7.88
2022-11-25T05:27:07.270Z,8.38
2022-11-25T05:27:48.990Z,8.05
2022-11-25T05:28:31.375Z,7.40
2022-11-25T05:29:13.331Z,7.57
2022-11-25T05:29:56.375Z,7.80
2022-11-25T05:30:39.522Z,7.97
2022-11-25T05:31:21.369Z,7.05
2022-11-25T05:32:05.597Z,8.10
2022-11-25T05:32:47.611Z,7.95
2022-11-25T05:33:29.796Z,8.13
2022-11-25T05:34:11.570Z,8.02
2022-11-25T05:34:53.374Z,8.50
2022-11-25T05:35:35.093Z,7.90
2022-11-25T05:36:17.370Z,7.50
2022-11-25T05:37:01.233Z,7.50
2022-11-25T05:37:44.935Z,7.15
2022-11-25T05:38:27.654Z,6.88
2022-11-25T05:39:09.420Z,22.48
2022-11-25T05:40:20.673Z,9.23
2022-11-25T05:41:11.820Z,8.88
2022-11-25T05:41:55.608Z,8.65
2022-11-25T05:42:37.912Z,8.40
2022-11-25T05:43:22.220Z,8.68
2022-11-25T05:44:05.447Z,7.68
2022-11-25T05:44:48.251Z,8.02
2022-11-25T05:45:30.048Z,8.25
2022-11-25T05:46:12.684Z,7.05
2022-11-25T05:47:00.791Z,7.88
2022-11-25T05:47:42.910Z,7.07
2022-11-25T05:48:25.790Z,7.53
2022-11-25T05:49:08.003Z,7.68
2022-11-25T05:49:49.751Z,7.18
2022-11-25T05:50:31.828Z,8.45
2022-11-25T05:51:29.677Z,9.93
2022-11-25T05:52:13.522Z,8.38
2022-11-25T05:53:03.866Z,7.60
2022-11-25T05:53:45.592Z,7.85
2022-11-25T05:54:27.804Z,6.35
2022-11-25T05:55:10.029Z,5.40
2022-11-25T05:56:00.485Z,8.02
2022-11-25T05:57:20.692Z,6.22
2022-11-25T05:58:09.816Z,7.30
2022-11-25T05:58:51.893Z,6.95
2022-11-25T05:59:33.729Z,7.25
2022-11-25T06:00:27.468Z,10.55
2022-11-25T06:01:11.558Z,7.80
2022-11-25T06:01:54.539Z,7.57
2022-11-25T06:02:36.786Z,6.78
2022-11-25T06:03:19.117Z,8.88
2022-11-25T06:04:03.348Z,8.55
2022-11-25T06:04:45.077Z,7.65
2022-11-25T06:05:26.983Z,9.82
2022-11-25T06:06:10.449Z,7.00
2022-11-25T06:06:53.201Z,8.43
2022-11-25T06:07:36.047Z,6.95
2022-11-25T06:08:18.426Z,8.65
2022-11-25T06:09:02.291Z,9.07
2022-11-25T06:09:45.083Z,8.02
2022-11-25T06:10:26.934Z,9.75
2022-11-25T06:11:12.069Z,8.57
2022-11-25T06:11:53.911Z,8.13
2022-11-25T06:12:36.073Z,8.93
2022-11-25T06:13:18.501Z,7.32
2022-11-25T06:14:00.323Z,8.18
2022-11-25T06:14:43.726Z,7.40
2022-11-25T06:15:25.827Z,6.93
2022-11-25T06:16:13.113Z,7.95
2022-11-25T06:16:55.145Z,7.40
2022-11-25T06:17:51.782Z,7.40
2022-11-25T06:18:39.410Z,7.30
2022-11-25T06:19:23.079Z,8.60
2022-11-25T06:20:07.591Z,8.02
2022-11-25T06:20:57.556Z,8.55
2022-11-25T06:21:39.493Z,9.57
2022-11-25T06:22:21.633Z,10.35
2022-11-25T06:23:04.141Z,7.05
2022-11-25T06:23:48.505Z,7.30
2022-11-25T06:24:33.438Z,8.13
2022-11-25T06:25:19.828Z,7.70
2022-11-25T06:26:08.694Z,8.52
2022-11-25T06:26:51.163Z,8.80
2022-11-25T06:27:56.852Z,7.95
2022-11-25T06:28:36.352Z,8.52
2022-11-25T06:29:18.024Z,7.20
2022-11-25T06:30:03.680Z,8.93
2022-11-25T06:30:45.697Z,7.85
2022-11-25T06:31:41.337Z,8.23
2022-11-25T06:32:43.667Z,8.25
2022-11-25T06:33:36.281Z,7.47
2022-11-25T06:34:20.011Z,9.60
2022-11-25T06:35:01.704Z,8.65
2022-11-25T06:36:16.850Z,10.10
2022-11-25T06:36:58.472Z,8.52
2022-11-25T06:37:40.461Z,7.38
2022-11-25T06:38:22.106Z,7.03
2022-11-25T06:39:03.822Z,9.48
2022-11-25T06:39:45.739Z,9.60
2022-11-25T06:40:27.470Z,14.45
2022-11-25T06:41:09.133Z,7.65
2022-11-25T06:41:50.922Z,9.43
2022-11-25T06:42:32.712Z,9.07
2022-11-25T06:43:14.370Z,17.42
2022-11-25T06:43:56.049Z,13.48
2022-11-25T06:44:37.867Z,11.82
2022-11-25T06:45:19.898Z,9.50
2022-11-25T06:46:13.254Z,11.15
2022-11-25T06:46:55.076Z,8.93
2022-11-25T06:47:36.859Z,7.63
2022-11-25T06:48:18.620Z,7.00
2022-11-25T06:49:00.410Z,7.90
2022-11-25T06:49:42.098Z,6.68
2022-11-25T06:50:23.813Z,8.32
2022-11-25T06:51:13.184Z,5.70
2022-11-25T06:51:54.956Z,5.47
2022-11-25T06:52:37.073Z,5.90
2022-11-25T06:53:23.817Z,7.95
2022-11-25T06:54:06.100Z,6.80
2022-11-25T06:54:47.810Z,6.20
2022-11-25T06:55:29.472Z,6.15
2022-11-25T06:56:20.064Z,9.93
2022-11-25T06:57:01.959Z,11.60
2022-11-25T06:57:43.651Z,10.30
2022-11-25T06:58:35.304Z,11.40
2022-11-25T06:59:18.321Z,9.18
2022-11-25T07:00:00.040Z,9.70
2022-11-25T07:00:41.819Z,8.27
2022-11-25T07:01:26.151Z,9.27
2022-11-25T07:02:11.672Z,13.15
2022-11-25T07:02:53.526Z,11.25
2022-11-25T07:03:35.709Z,11.77
2022-11-25T07:04:17.425Z,12.55
2022-11-25T07:04:59.143Z,8.75
2022-11-25T07:05:40.769Z,7.90
2022-11-25T07:06:22.788Z,7.30
2022-11-25T07:07:04.615Z,8.02
2022-11-25T07:07:46.348Z,7.68
2022-11-25T07:08:33.719Z,8.27
2022-11-25T07:09:15.999Z,7.47
2022-11-25T07:09:57.636Z,7.45
2022-11-25T07:10:39.309Z,7.43
2022-11-25T07:11:33.149Z,9.43
2022-11-25T07:12:14.875Z,9.23
2022-11-25T07:12:57.395Z,12.20
2022-11-25T07:13:39.036Z,9.50
2022-11-25T07:14:20.786Z,10.13
2022-11-25T07:15:02.531Z,10.23
2022-11-25T07:15:44.292Z,7.53
2022-11-25T07:16:28.331Z,9.18
2022-11-25T07:17:12.146Z,7.80
2022-11-25T07:17:53.939Z,9.25
2022-11-25T07:18:38.381Z,8.40
2022-11-25T07:19:20.413Z,8.30
2022-11-25T07:20:02.049Z,8.95
2022-11-25T07:20:43.740Z,8.70
2022-11-25T07:21:25.818Z,7.28
2022-11-25T07:22:09.805Z,6.95
2022-11-25T07:22:51.439Z,10.07
2022-11-25T07:23:34.392Z,12.27
2022-11-25T07:24:18.461Z,13.40
2022-11-25T07:25:00.174Z,13.50
2022-11-25T07:25:41.854Z,12.98
2022-11-25T07:26:25.769Z,10.80
2022-11-25T07:27:08.232Z,11.48
2022-11-25T07:27:50.031Z,11.43
2022-11-25T07:28:35.623Z,9.70
2022-11-25T07:29:44.319Z,10.43
2022-11-25T07:31:31.116Z,9.65
2022-11-25T07:32:14.096Z,8.43
2022-11-25T07:32:55.973Z,8.70
2022-11-25T07:33:37.816Z,9.52
2022-11-25T07:34:21.452Z,11.25
2022-11-25T07:35:03.601Z,9.98
2022-11-25T07:35:45.333Z,12.35
2022-11-25T07:36:27.897Z,14.50
2022-11-25T07:37:09.567Z,13.82
2022-11-25T07:37:51.201Z,13.23
2022-11-25T07:38:34.020Z,10.90
2022-11-25T07:39:21.897Z,16.48
2022-11-25T07:40:03.951Z,11.82
2022-11-25T07:40:45.623Z,11.40
2022-11-25T07:41:28.453Z,10.32
2022-11-25T07:42:10.175Z,10.68
2022-11-25T07:42:51.877Z,8.75
2022-11-25T07:43:37.112Z,8.90
2022-11-25T07:44:19.848Z,11.98
2022-11-25T07:45:07.540Z,10.02
2022-11-25T07:45:57.103Z,12.88
2022-11-25T07:46:42.236Z,11.60
2022-11-25T07:47:25.367Z,9.35
2022-11-25T07:48:07.064Z,11.32
2022-11-25T07:48:49.112Z,12.32
2022-11-25T07:49:30.836Z,10.02
2022-11-25T07:50:12.545Z,9.25
2022-11-25T07:50:54.233Z,10.60
2022-11-25T07:51:38.505Z,10.93
2022-11-25T07:52:20.233Z,11.00
2022-11-25T07:53:02.011Z,10.20
2022-11-25T07:53:44.361Z,9.18
2022-11-25T07:54:26.610Z,10.48
2022-11-25T07:55:08.869Z,10.88
2022-11-25T07:55:50.756Z,9.80
2022-11-25T07:56:34.730Z,10.43
2022-11-25T07:57:16.471Z,9.30
2022-11-25T07:57:58.221Z,9.35
2022-11-25T07:58:45.617Z,14.05
2022-11-25T07:59:29.199Z,11.90
2022-11-25T08:00:11.493Z,10.30
2022-11-25T08:00:56.714Z,12.25
2022-11-25T08:01:38.659Z,11.27
2022-11-25T08:02:20.460Z,11.55
2022-11-25T08:03:02.321Z,12.23
2022-11-25T08:03:45.528Z,11.63
2022-11-25T08:04:27.312Z,9.60
2022-11-25T08:05:09.368Z,10.35
2022-11-25T08:05:51.090Z,10.82
2022-11-25T08:06:32.832Z,9.27
2022-11-25T08:07:14.616Z,12.73
2022-11-25T08:07:56.505Z,11.80
2022-11-25T08:08:39.349Z,11.60
2022-11-25T08:09:23.530Z,12.57
2022-11-25T08:10:05.723Z,10.60
2022-11-25T08:10:47.905Z,14.35
2022-11-25T08:11:31.188Z,9.30
2022-11-25T08:12:13.007Z,13.40
2022-11-25T08:12:54.723Z,13.57
2022-11-25T08:13:36.719Z,9.80
2022-11-25T08:14:19.413Z,8.82
2022-11-25T08:15:01.172Z,9.65
2022-11-25T08:15:42.876Z,11.20
2022-11-25T08:16:31.196Z,10.48
2022-11-25T08:17:13.215Z,8.05
2022-11-25T08:17:55.012Z,10.48
2022-11-25T08:18:36.723Z,9.02
2022-11-25T08:19:18.750Z,11.43
2022-11-25T08:20:00.547Z,11.55
2022-11-25T08:20:42.239Z,11.30
2022-11-25T08:21:24.829Z,10.00
2022-11-25T08:22:06.865Z,9.60
2022-11-25T08:22:48.616Z,10.57
2022-11-25T08:23:31.584Z,10.82
2022-11-25T08:24:16.374Z,10.93
2022-11-25T08:24:58.213Z,11.00
2022-11-25T08:25:44.981Z,10.35
2022-11-25T08:26:33.867Z,14.18
2022-11-25T08:27:17.664Z,12.70
2022-11-25T08:28:00.236Z,13.45
2022-11-25T08:28:42.480Z,12.20
2022-11-25T08:29:24.365Z,14.45
2022-11-25T08:30:06.893Z,12.15
2022-11-25T08:30:48.738Z,11.75
2022-11-25T08:31:33.885Z,11.55
2022-11-25T08:32:15.687Z,12.13
2022-11-25T08:32:58.554Z,11.40
2022-11-25T08:33:40.893Z,14.85
2022-11-25T08:34:24.722Z,12.25
2022-11-25T08:35:12.448Z,13.65
2022-11-25T08:35:54.589Z,11.23
2022-11-25T08:36:36.561Z,14.18
2022-11-25T08:37:18.292Z,16.15
2022-11-25T08:38:02.539Z,14.48
2022-11-25T08:38:46.417Z,15.18
2022-11-25T08:39:51.254Z,16.02
2022-11-25T08:40:30.432Z,16.85
2022-11-25T08:41:33.756Z,13.45
2022-11-25T08:42:15.530Z,16.13
2022-11-25T08:42:57.364Z,15.77
2022-11-25T08:43:39.880Z,12.60
2022-11-25T08:44:21.673Z,12.75
2022-11-25T08:45:04.209Z,15.05
2022-11-25T08:45:46.073Z,12.65
2022-11-25T08:46:33.378Z,13.48
2022-11-25T08:47:15.300Z,12.57
2022-11-25T08:47:58.439Z,16.13
2022-11-25T08:48:41.096Z,11.45
2022-11-25T08:49:22.918Z,13.55
2022-11-25T08:50:10.090Z,12.55
2022-11-25T08:50:54.108Z,12.85
2022-11-25T08:51:37.865Z,12.80
2022-11-25T08:52:20.774Z,11.20
2022-11-25T08:53:02.624Z,13.15
2022-11-25T08:53:45.444Z,11.98
2022-11-25T08:54:27.232Z,11.68
2022-11-25T08:55:09.648Z,13.50
2022-11-25T08:55:51.336Z,11.63
2022-11-25T08:56:33.269Z,13.23
2022-11-25T08:57:16.122Z,10.43
2022-11-25T08:57:57.900Z,10.45
2022-11-25T08:58:39.728Z,11.13
2022-11-25T08:59:22.814Z,13.50
2022-11-25T09:00:06.867Z,10.55
2022-11-25T09:00:48.637Z,10.98
2022-11-25T09:01:30.772Z,11.45
2022-11-25T09:02:16.017Z,8.80
2022-11-25T09:02:57.939Z,10.52
2022-11-25T09:03:43.381Z,9.95
2022-11-25T09:04:25.267Z,8.93
2022-11-25T09:05:07.196Z,9.48
2022-11-25T09:05:50.162Z,11.80
2022-11-25T09:06:32.071Z,14.10
2022-11-25T09:07:13.972Z,10.27
2022-11-25T09:07:55.798Z,11.07
2022-11-25T09:08:41.705Z,10.90
2022-11-25T09:09:23.600Z,11.60
2022-11-25T09:10:07.936Z,11.02
2022-11-25T09:10:52.730Z,10.07
2022-11-25T09:11:44.542Z,9.85
2022-11-25T09:12:35.840Z,8.82
2022-11-25T09:13:20.518Z,9.98
2022-11-25T09:14:02.288Z,9.25
2022-11-25T09:14:45.660Z,9.73
2022-11-25T09:15:27.603Z,10.55
2022-11-25T09:16:09.699Z,9.32
2022-11-25T09:16:51.505Z,9.27
2022-11-25T09:17:35.503Z,9.52
2022-11-25T09:18:20.024Z,11.02
2022-11-25T09:19:01.997Z,10.13
2022-11-25T09:19:43.766Z,11.45
2022-11-25T09:20:25.596Z,9.73
2022-11-25T09:21:09.814Z,9.07
2022-11-25T09:21:51.703Z,8.63
2022-11-25T09:22:33.548Z,10.73
2022-11-25T09:23:15.323Z,10.57
2022-11-25T09:23:57.040Z,10.57
2022-11-25T09:24:38.884Z,10.48
2022-11-25T09:25:23.506Z,9.35
2022-11-25T09:26:06.726Z,13.25
2022-11-25T09:26:49.375Z,9.27
2022-11-25T09:27:31.802Z,10.75
2022-11-25T09:28:13.616Z,9.25
2022-11-25T09:28:56.328Z,9.02
2022-11-25T09:29:38.363Z,8.50
2022-11-25T09:30:20.781Z,8.85
2022-11-25T09:31:09.628Z,9.13
2022-11-25T09:31:54.633Z,8.48
2022-11-25T09:32:36.819Z,9.27
2022-11-25T09:33:19.755Z,9.07
2022-11-25T09:34:01.901Z,7.65
2022-11-25T09:34:43.643Z,8.23
2022-11-25T09:35:26.734Z,8.30
2022-11-25T09:36:09.826Z,8.15
2022-11-25T09:36:51.946Z,7.75
2022-11-25T09:37:36.758Z,7.05
2022-11-25T09:38:18.634Z,9.32
2022-11-25T09:39:00.528Z,6.78
2022-11-25T09:39:42.378Z,7.68
2022-11-25T09:40:40.669Z,8.10
2022-11-25T09:42:18.091Z,7.47
2022-11-25T09:43:36.660Z,7.90
2022-11-25T09:45:13.132Z,9.38